Weather at Kavala Amygdaleon Lydia Airfield

Public forecast

Using degrees Celsius for public forecast. Weather courtesy of forecast.io.

Closest aviation weather report (METAR) to Kavala Amygdaleon Lydia Airfield

Closest report is Kavala Alexander the Great International Airport, 13.1 nm (24.3 km) ESE.

2024/06/16 17:50 (retrieved 11 minutes ago)

LGKV 161750Z 27006KT 9999 FEW030 25/19 Q1010

Closest aviation forecast (TAF) to Kavala Amygdaleon Lydia Airfield

Closest forecast is Kavala Alexander the Great International Airport, 13.1 nm (24.3 km) ESE.

2024/06/16 18:12 (retrieved 0 seconds ago)

TAF LGKV 161700Z 1618/1718 VRB03KT 9999 FEW030 BECMG 1712/1714 23014KT FEW030 SCT080 PROB30 TEMPO 1714/1718 5000 TSRA FEW015CB SCT030 BKN080